sensor_id;sensor_type;location;lat;lon;timestamp;temperature;humidity
17215;DHT22;8723;51.502;6.918;2023-04-06T00:00:22;2.60;1.00
17215;DHT22;8723;51.502;6.918;2023-04-06T00:02:50;2.60;1.00
17215;DHT22;8723;51.502;6.918;2023-04-06T00:05:19;2.40;1.00
17215;DHT22;8723;51.502;6.918;2023-04-06T00:07:46;2.40;6.20
17215;DHT22;8723;51.502;6.918;2023-04-06T00:10:13;2.40;10.00
17215;DHT22;8723;51.502;6.918;2023-04-06T00:12:40;2.40;9.70
17215;DHT22;8723;51.502;6.918;2023-04-06T00:15:08;2.30;15.40
17215;DHT22;8723;51.502;6.918;2023-04-06T00:17:36;2.30;24.70
17215;DHT22;8723;51.502;6.918;2023-04-06T00:20:05;2.40;19.60
17215;DHT22;8723;51.502;6.918;2023-04-06T00:22:33;2.40;17.10
17215;DHT22;8723;51.502;6.918;2023-04-06T00:25:00;2.30;12.80
17215;DHT22;8723;51.502;6.918;2023-04-06T00:27:27;2.40;20.60
17215;DHT22;8723;51.502;6.918;2023-04-06T00:29:54;2.30;13.60
17215;DHT22;8723;51.502;6.918;2023-04-06T00:32:21;2.30;18.00
17215;DHT22;8723;51.502;6.918;2023-04-06T00:34:48;2.20;25.90
17215;DHT22;8723;51.502;6.918;2023-04-06T00:37:16;2.20;22.80
17215;DHT22;8723;51.502;6.918;2023-04-06T00:39:43;2.20;25.00
17215;DHT22;8723;51.502;6.918;2023-04-06T00:42:11;2.20;33.30
17215;DHT22;8723;51.502;6.918;2023-04-06T00:44:39;2.10;37.70
17215;DHT22;8723;51.502;6.918;2023-04-06T00:47:07;2.10;46.30
17215;DHT22;8723;51.502;6.918;2023-04-06T00:49:34;2.10;53.50
17215;DHT22;8723;51.502;6.918;2023-04-06T00:52:01;2.10;57.40
17215;DHT22;8723;51.502;6.918;2023-04-06T00:54:30;2.10;62.60
17215;DHT22;8723;51.502;6.918;2023-04-06T00:56:57;2.10;69.90
17215;DHT22;8723;51.502;6.918;2023-04-06T00:59:24;2.00;74.30
17215;DHT22;8723;51.502;6.918;2023-04-06T01:01:51;2.00;65.20
17215;DHT22;8723;51.502;6.918;2023-04-06T01:04:19;2.00;75.40
17215;DHT22;8723;51.502;6.918;2023-04-06T01:06:48;2.00;87.50
17215;DHT22;8723;51.502;6.918;2023-04-06T01:09:15;1.90;99.90
17215;DHT22;8723;51.502;6.918;2023-04-06T01:11:44;1.90;99.90
17215;DHT22;8723;51.502;6.918;2023-04-06T01:14:11;1.90;99.90
17215;DHT22;8723;51.502;6.918;2023-04-06T01:16:38;1.90;99.90
17215;DHT22;8723;51.502;6.918;2023-04-06T01:19:08;1.90;99.90
17215;DHT22;8723;51.502;6.918;2023-04-06T01:21:36;1.90;99.90
17215;DHT22;8723;51.502;6.918;2023-04-06T01:24:05;1.90;99.90
17215;DHT22;8723;51.502;6.918;2023-04-06T01:26:33;1.80;99.90
17215;DHT22;8723;51.502;6.918;2023-04-06T01:29:04;1.80;99.90
17215;DHT22;8723;51.502;6.918;2023-04-06T01:31:31;1.80;99.90
17215;DHT22;8723;51.502;6.918;2023-04-06T01:33:58;1.80;99.90
17215;DHT22;8723;51.502;6.918;2023-04-06T01:36:25;1.70;99.90
17215;DHT22;8723;51.502;6.918;2023-04-06T01:38:52;1.80;99.90
17215;DHT22;8723;51.502;6.918;2023-04-06T01:41:21;1.70;99.90
17215;DHT22;8723;51.502;6.918;2023-04-06T01:43:48;1.70;99.90
17215;DHT22;8723;51.502;6.918;2023-04-06T01:46:15;1.70;99.90
17215;DHT22;8723;51.502;6.918;2023-04-06T01:48:42;1.70;99.90
17215;DHT22;8723;51.502;6.918;2023-04-06T01:51:09;1.70;99.90
17215;DHT22;8723;51.502;6.918;2023-04-06T01:53:36;1.70;99.90
17215;DHT22;8723;51.502;6.918;2023-04-06T01:56:04;1.70;99.90
17215;DHT22;8723;51.502;6.918;2023-04-06T01:58:33;1.70;99.90
17215;DHT22;8723;51.502;6.918;2023-04-06T02:01:00;1.60;99.90
17215;DHT22;8723;51.502;6.918;2023-04-06T02:03:28;1.60;99.90
17215;DHT22;8723;51.502;6.918;2023-04-06T02:05:55;1.60;99.90
17215;DHT22;8723;51.502;6.918;2023-04-06T02:08:22;1.60;99.90
17215;DHT22;8723;51.502;6.918;2023-04-06T02:10:49;1.60;99.90
17215;DHT22;8723;51.502;6.918;2023-04-06T02:13:16;1.60;99.90
17215;DHT22;8723;51.502;6.918;2023-04-06T02:15:44;1.60;99.90
17215;DHT22;8723;51.502;6.918;2023-04-06T02:18:11;1.60;99.90
17215;DHT22;8723;51.502;6.918;2023-04-06T02:20:38;1.50;99.90
17215;DHT22;8723;51.502;6.918;2023-04-06T02:23:06;1.60;99.90
17215;DHT22;8723;51.502;6.918;2023-04-06T02:25:33;1.50;99.90
17215;DHT22;8723;51.502;6.918;2023-04-06T02:28:01;1.50;99.90
17215;DHT22;8723;51.502;6.918;2023-04-06T02:30:28;1.40;99.90
17215;DHT22;8723;51.502;6.918;2023-04-06T02:32:58;1.40;99.90
17215;DHT22;8723;51.502;6.918;2023-04-06T02:35:27;1.50;99.90
17215;DHT22;8723;51.502;6.918;2023-04-06T02:37:54;1.50;99.90
17215;DHT22;8723;51.502;6.918;2023-04-06T02:40:21;1.50;99.90
17215;DHT22;8723;51.502;6.918;2023-04-06T02:42:48;1.40;99.90
17215;DHT22;8723;51.502;6.918;2023-04-06T02:45:16;1.40;99.90
17215;DHT22;8723;51.502;6.918;2023-04-06T02:47:43;1.40;99.90
17215;DHT22;8723;51.502;6.918;2023-04-06T02:50:11;1.40;99.90
17215;DHT22;8723;51.502;6.918;2023-04-06T02:52:38;1.30;99.90
17215;DHT22;8723;51.502;6.918;2023-04-06T02:55:06;1.30;99.90
17215;DHT22;8723;51.502;6.918;2023-04-06T02:57:33;1.30;99.90
17215;DHT22;8723;51.502;6.918;2023-04-06T03:00:00;1.30;99.90
17215;DHT22;8723;51.502;6.918;2023-04-06T03:02:27;1.30;99.90
17215;DHT22;8723;51.502;6.918;2023-04-06T03:04:55;1.30;99.90
17215;DHT22;8723;51.502;6.918;2023-04-06T03:07:23;1.30;99.90
17215;DHT22;8723;51.502;6.918;2023-04-06T03:09:50;1.20;99.90
17215;DHT22;8723;51.502;6.918;2023-04-06T03:12:17;1.20;99.90
17215;DHT22;8723;51.502;6.918;2023-04-06T03:14:44;1.10;99.90
17215;DHT22;8723;51.502;6.918;2023-04-06T03:17:11;1.10;99.90
17215;DHT22;8723;51.502;6.918;2023-04-06T03:19:38;1.10;99.90
17215;DHT22;8723;51.502;6.918;2023-04-06T03:22:05;1.10;99.90
17215;DHT22;8723;51.502;6.918;2023-04-06T03:24:33;1.10;99.90
17215;DHT22;8723;51.502;6.918;2023-04-06T03:27:00;1.10;99.90
17215;DHT22;8723;51.502;6.918;2023-04-06T03:29:27;1.10;99.90
17215;DHT22;8723;51.502;6.918;2023-04-06T03:31:55;1.10;99.90
17215;DHT22;8723;51.502;6.918;2023-04-06T03:34:22;1.00;99.90
17215;DHT22;8723;51.502;6.918;2023-04-06T03:36:49;1.00;99.90
17215;DHT22;8723;51.502;6.918;2023-04-06T03:39:16;1.00;99.90
17215;DHT22;8723;51.502;6.918;2023-04-06T03:41:45;1.00;99.90
17215;DHT22;8723;51.502;6.918;2023-04-06T03:44:12;1.10;99.90
17215;DHT22;8723;51.502;6.918;2023-04-06T03:46:40;1.10;99.90
17215;DHT22;8723;51.502;6.918;2023-04-06T03:49:07;1.10;99.90
17215;DHT22;8723;51.502;6.918;2023-04-06T03:51:34;1.10;99.90
17215;DHT22;8723;51.502;6.918;2023-04-06T03:54:01;1.10;1.00
17215;DHT22;8723;51.502;6.918;2023-04-06T03:56:28;1.10;1.00
17215;DHT22;8723;51.502;6.918;2023-04-06T03:58:56;1.10;1.00
17215;DHT22;8723;51.502;6.918;2023-04-06T04:01:23;1.10;1.00
17215;DHT22;8723;51.502;6.918;2023-04-06T04:03:50;1.10;1.00
17215;DHT22;8723;51.502;6.918;2023-04-06T04:06:17;1.00;1.00
17215;DHT22;8723;51.502;6.918;2023-04-06T04:08:44;1.00;1.00
17215;DHT22;8723;51.502;6.918;2023-04-06T04:11:11;1.00;99.90
17215;DHT22;8723;51.502;6.918;2023-04-06T04:13:38;1.00;1.00
17215;DHT22;8723;51.502;6.918;2023-04-06T04:16:07;1.00;1.00
17215;DHT22;8723;51.502;6.918;2023-04-06T04:18:34;0.90;1.00
17215;DHT22;8723;51.502;6.918;2023-04-06T04:21:02;0.90;1.00
17215;DHT22;8723;51.502;6.918;2023-04-06T04:23:29;0.90;1.00
17215;DHT22;8723;51.502;6.918;2023-04-06T04:25:56;0.80;1.00
17215;DHT22;8723;51.502;6.918;2023-04-06T04:28:23;0.80;1.00
17215;DHT22;8723;51.502;6.918;2023-04-06T04:30:50;0.80;1.00
17215;DHT22;8723;51.502;6.918;2023-04-06T04:33:18;0.80;1.00
17215;DHT22;8723;51.502;6.918;2023-04-06T04:35:45;0.70;1.00
17215;DHT22;8723;51.502;6.918;2023-04-06T04:38:12;0.70;1.00
17215;DHT22;8723;51.502;6.918;2023-04-06T04:40:39;0.70;1.00
17215;DHT22;8723;51.502;6.918;2023-04-06T04:43:06;0.70;1.00
17215;DHT22;8723;51.502;6.918;2023-04-06T04:45:33;0.70;1.00
17215;DHT22;8723;51.502;6.918;2023-04-06T04:48:00;0.70;1.00
17215;DHT22;8723;51.502;6.918;2023-04-06T04:50:28;0.80;1.00
17215;DHT22;8723;51.502;6.918;2023-04-06T04:52:55;0.80;1.00
17215;DHT22;8723;51.502;6.918;2023-04-06T04:55:22;0.90;1.00
17215;DHT22;8723;51.502;6.918;2023-04-06T04:57:49;0.80;1.00
17215;DHT22;8723;51.502;6.918;2023-04-06T05:00:16;0.80;1.00
17215;DHT22;8723;51.502;6.918;2023-04-06T05:02:43;0.70;1.00
17215;DHT22;8723;51.502;6.918;2023-04-06T05:05:11;0.60;1.00
17215;DHT22;8723;51.502;6.918;2023-04-06T05:07:39;0.60;1.00
17215;DHT22;8723;51.502;6.918;2023-04-06T05:10:07;0.60;1.00
17215;DHT22;8723;51.502;6.918;2023-04-06T05:12:34;0.70;1.00
17215;DHT22;8723;51.502;6.918;2023-04-06T05:15:02;0.70;1.00
17215;DHT22;8723;51.502;6.918;2023-04-06T05:17:29;0.70;1.00
17215;DHT22;8723;51.502;6.918;2023-04-06T05:19:56;0.80;1.00
17215;DHT22;8723;51.502;6.918;2023-04-06T05:22:23;0.80;1.00
17215;DHT22;8723;51.502;6.918;2023-04-06T05:24:51;0.80;1.00
17215;DHT22;8723;51.502;6.918;2023-04-06T05:27:18;0.80;1.00
17215;DHT22;8723;51.502;6.918;2023-04-06T05:29:45;0.80;1.00
17215;DHT22;8723;51.502;6.918;2023-04-06T05:32:12;0.80;1.00
17215;DHT22;8723;51.502;6.918;2023-04-06T05:34:41;0.90;1.00
17215;DHT22;8723;51.502;6.918;2023-04-06T05:37:08;0.90;1.00
17215;DHT22;8723;51.502;6.918;2023-04-06T05:39:35;1.00;1.00
17215;DHT22;8723;51.502;6.918;2023-04-06T05:42:05;1.00;1.00
17215;DHT22;8723;51.502;6.918;2023-04-06T05:44:32;1.10;1.00
17215;DHT22;8723;51.502;6.918;2023-04-06T05:46:59;1.10;1.00
17215;DHT22;8723;51.502;6.918;2023-04-06T05:49:26;1.10;1.00
17215;DHT22;8723;51.502;6.918;2023-04-06T05:51:54;1.20;1.00
17215;DHT22;8723;51.502;6.918;2023-04-06T05:54:21;1.20;1.00
17215;DHT22;8723;51.502;6.918;2023-04-06T05:56:48;1.30;1.00
17215;DHT22;8723;51.502;6.918;2023-04-06T05:59:16;1.30;1.00
17215;DHT22;8723;51.502;6.918;2023-04-06T06:01:43;1.40;1.00
17215;DHT22;8723;51.502;6.918;2023-04-06T06:04:10;1.50;1.00
17215;DHT22;8723;51.502;6.918;2023-04-06T06:06:37;1.60;1.00
17215;DHT22;8723;51.502;6.918;2023-04-06T06:09:04;1.70;1.00
17215;DHT22;8723;51.502;6.918;2023-04-06T06:11:31;1.70;1.00
17215;DHT22;8723;51.502;6.918;2023-04-06T06:13:58;1.80;1.00
17215;DHT22;8723;51.502;6.918;2023-04-06T06:16:27;1.90;1.00
17215;DHT22;8723;51.502;6.918;2023-04-06T06:18:54;2.00;1.00
17215;DHT22;8723;51.502;6.918;2023-04-06T06:21:21;2.10;1.00
17215;DHT22;8723;51.502;6.918;2023-04-06T06:23:48;2.20;1.00
17215;DHT22;8723;51.502;6.918;2023-04-06T06:26:15;2.20;1.00
17215;DHT22;8723;51.502;6.918;2023-04-06T06:28:42;2.30;1.00
17215;DHT22;8723;51.502;6.918;2023-04-06T06:31:09;2.40;1.00
17215;DHT22;8723;51.502;6.918;2023-04-06T06:33:38;2.40;1.00
17215;DHT22;8723;51.502;6.918;2023-04-06T06:36:05;2.50;99.90
17215;DHT22;8723;51.502;6.918;2023-04-06T06:38:32;2.60;99.90
17215;DHT22;8723;51.502;6.918;2023-04-06T06:40:59;2.60;99.90
17215;DHT22;8723;51.502;6.918;2023-04-06T06:43:26;2.70;99.90
17215;DHT22;8723;51.502;6.918;2023-04-06T06:45:53;2.80;99.90
17215;DHT22;8723;51.502;6.918;2023-04-06T06:48:20;2.80;99.90
17215;DHT22;8723;51.502;6.918;2023-04-06T06:50:48;2.90;99.90
17215;DHT22;8723;51.502;6.918;2023-04-06T06:53:15;3.00;99.90
17215;DHT22;8723;51.502;6.918;2023-04-06T06:55:43;3.00;99.90
17215;DHT22;8723;51.502;6.918;2023-04-06T06:58:10;3.10;97.10
17215;DHT22;8723;51.502;6.918;2023-04-06T07:00:38;3.20;88.90
17215;DHT22;8723;51.502;6.918;2023-04-06T07:03:05;3.30;69.90
17215;DHT22;8723;51.502;6.918;2023-04-06T07:05:32;3.30;53.50
17215;DHT22;8723;51.502;6.918;2023-04-06T07:08:01;3.40;43.20
17215;DHT22;8723;51.502;6.918;2023-04-06T07:10:28;3.50;29.20
17215;DHT22;8723;51.502;6.918;2023-04-06T07:12:55;3.60;23.20
17215;DHT22;8723;51.502;6.918;2023-04-06T07:15:22;3.80;15.50
17215;DHT22;8723;51.502;6.918;2023-04-06T07:17:49;4.00;12.00
17215;DHT22;8723;51.502;6.918;2023-04-06T07:20:17;4.30;3.70
17215;DHT22;8723;51.502;6.918;2023-04-06T07:22:44;4.50;1.00
17215;DHT22;8723;51.502;6.918;2023-04-06T07:25:13;4.70;1.00
17215;DHT22;8723;51.502;6.918;2023-04-06T07:27:40;4.90;1.00
17215;DHT22;8723;51.502;6.918;2023-04-06T07:30:08;5.00;1.00
17215;DHT22;8723;51.502;6.918;2023-04-06T07:32:35;5.00;1.00
17215;DHT22;8723;51.502;6.918;2023-04-06T07:35:02;5.20;1.00
17215;DHT22;8723;51.502;6.918;2023-04-06T07:37:29;5.30;1.00
17215;DHT22;8723;51.502;6.918;2023-04-06T07:39:56;5.60;1.00
17215;DHT22;8723;51.502;6.918;2023-04-06T07:42:25;5.80;1.00
17215;DHT22;8723;51.502;6.918;2023-04-06T07:44:52;6.00;1.00
17215;DHT22;8723;51.502;6.918;2023-04-06T07:47:19;6.10;1.00
17215;DHT22;8723;51.502;6.918;2023-04-06T07:49:46;6.20;1.00
17215;DHT22;8723;51.502;6.918;2023-04-06T07:52:13;6.40;1.00
17215;DHT22;8723;51.502;6.918;2023-04-06T07:54:40;6.70;1.00
17215;DHT22;8723;51.502;6.918;2023-04-06T07:57:07;7.00;1.00
17215;DHT22;8723;51.502;6.918;2023-04-06T07:59:36;7.00;1.00
17215;DHT22;8723;51.502;6.918;2023-04-06T08:02:03;7.10;1.00
17215;DHT22;8723;51.502;6.918;2023-04-06T08:04:30;7.20;1.00
17215;DHT22;8723;51.502;6.918;2023-04-06T08:06:58;7.40;1.00
17215;DHT22;8723;51.502;6.918;2023-04-06T08:09:25;7.70;1.00
17215;DHT22;8723;51.502;6.918;2023-04-06T08:11:53;7.80;1.00
17215;DHT22;8723;51.502;6.918;2023-04-06T08:14:20;7.90;1.00
17215;DHT22;8723;51.502;6.918;2023-04-06T08:16:48;7.90;1.00
17215;DHT22;8723;51.502;6.918;2023-04-06T08:19:15;8.00;1.00
17215;DHT22;8723;51.502;6.918;2023-04-06T08:21:44;8.00;1.00
17215;DHT22;8723;51.502;6.918;2023-04-06T08:24:11;8.00;1.00
17215;DHT22;8723;51.502;6.918;2023-04-06T08:26:38;8.10;1.00
17215;DHT22;8723;51.502;6.918;2023-04-06T08:29:05;8.20;1.00
17215;DHT22;8723;51.502;6.918;2023-04-06T08:31:33;8.40;1.00
17215;DHT22;8723;51.502;6.918;2023-04-06T08:34:01;8.40;1.00
17215;DHT22;8723;51.502;6.918;2023-04-06T08:36:28;8.50;1.00
17215;DHT22;8723;51.502;6.918;2023-04-06T08:38:56;8.60;1.00
17215;DHT22;8723;51.502;6.918;2023-04-06T08:41:23;8.70;1.00
17215;DHT22;8723;51.502;6.918;2023-04-06T08:43:57;8.80;1.00
17215;DHT22;8723;51.502;6.918;2023-04-06T08:46:24;8.80;1.00
17215;DHT22;8723;51.502;6.918;2023-04-06T08:48:56;8.90;1.00
17215;DHT22;8723;51.502;6.918;2023-04-06T08:51:25;9.00;1.00
17215;DHT22;8723;51.502;6.918;2023-04-06T08:53:52;9.00;1.00
17215;DHT22;8723;51.502;6.918;2023-04-06T08:56:22;9.10;1.00
17215;DHT22;8723;51.502;6.918;2023-04-06T08:58:49;9.30;1.00
17215;DHT22;8723;51.502;6.918;2023-04-06T09:01:20;9.50;1.00
17215;DHT22;8723;51.502;6.918;2023-04-06T09:03:49;9.50;1.00
17215;DHT22;8723;51.502;6.918;2023-04-06T09:06:17;9.50;1.00
17215;DHT22;8723;51.502;6.918;2023-04-06T09:08:46;9.60;1.00
17215;DHT22;8723;51.502;6.918;2023-04-06T09:11:13;9.60;1.00
17215;DHT22;8723;51.502;6.918;2023-04-06T09:13:47;9.70;1.00
17215;DHT22;8723;51.502;6.918;2023-04-06T09:16:15;9.80;1.00
17215;DHT22;8723;51.502;6.918;2023-04-06T09:18:42;9.80;1.00
17215;DHT22;8723;51.502;6.918;2023-04-06T09:21:09;10.00;1.00
17215;DHT22;8723;51.502;6.918;2023-04-06T09:23:37;10.40;1.00
17215;DHT22;8723;51.502;6.918;2023-04-06T09:26:10;10.60;1.00
17215;DHT22;8723;51.502;6.918;2023-04-06T09:28:48;10.60;1.00
17215;DHT22;8723;51.502;6.918;2023-04-06T09:31:16;10.60;1.00
17215;DHT22;8723;51.502;6.918;2023-04-06T09:33:44;10.60;1.00
17215;DHT22;8723;51.502;6.918;2023-04-06T09:36:12;10.60;1.00
17215;DHT22;8723;51.502;6.918;2023-04-06T09:38:52;10.70;1.00
17215;DHT22;8723;51.502;6.918;2023-04-06T09:41:28;10.80;1.00
17215;DHT22;8723;51.502;6.918;2023-04-06T09:44:03;11.00;1.00
17215;DHT22;8723;51.502;6.918;2023-04-06T09:46:32;11.00;1.00
17215;DHT22;8723;51.502;6.918;2023-04-06T09:49:01;11.10;1.00
17215;DHT22;8723;51.502;6.918;2023-04-06T09:51:30;11.20;1.00
17215;DHT22;8723;51.502;6.918;2023-04-06T09:53:59;11.30;1.00
17215;DHT22;8723;51.502;6.918;2023-04-06T09:56:33;11.40;1.00
17215;DHT22;8723;51.502;6.918;2023-04-06T09:59:08;11.50;1.00
17215;DHT22;8723;51.502;6.918;2023-04-06T10:01:37;11.60;1.00
17215;DHT22;8723;51.502;6.918;2023-04-06T10:04:13;11.70;1.00
17215;DHT22;8723;51.502;6.918;2023-04-06T10:06:44;11.80;1.00
17215;DHT22;8723;51.502;6.918;2023-04-06T10:09:13;11.80;1.00
17215;DHT22;8723;51.502;6.918;2023-04-06T10:11:42;11.70;1.00
17215;DHT22;8723;51.502;6.918;2023-04-06T10:14:10;11.70;1.00
17215;DHT22;8723;51.502;6.918;2023-04-06T10:16:37;11.70;1.00
17215;DHT22;8723;51.502;6.918;2023-04-06T10:19:09;11.60;1.00
17215;DHT22;8723;51.502;6.918;2023-04-06T10:21:38;11.70;1.00
17215;DHT22;8723;51.502;6.918;2023-04-06T10:24:08;11.70;1.00
17215;DHT22;8723;51.502;6.918;2023-04-06T10:26:38;11.70;1.00
17215;DHT22;8723;51.502;6.918;2023-04-06T10:29:06;11.80;1.00
17215;DHT22;8723;51.502;6.918;2023-04-06T10:31:40;11.80;1.00
17215;DHT22;8723;51.502;6.918;2023-04-06T10:34:09;12.10;1.00
17215;DHT22;8723;51.502;6.918;2023-04-06T10:36:36;12.30;1.00
17215;DHT22;8723;51.502;6.918;2023-04-06T10:39:05;12.50;1.00
17215;DHT22;8723;51.502;6.918;2023-04-06T10:44:22;12.50;1.00
17215;DHT22;8723;51.502;6.918;2023-04-06T10:46:53;12.60;1.00
17215;DHT22;8723;51.502;6.918;2023-04-06T10:49:20;12.60;1.00
17215;DHT22;8723;51.502;6.918;2023-04-06T10:51:51;12.50;1.00
17215;DHT22;8723;51.502;6.918;2023-04-06T10:54:21;12.60;1.00
17215;DHT22;8723;51.502;6.918;2023-04-06T10:56:48;12.60;1.00
17215;DHT22;8723;51.502;6.918;2023-04-06T10:59:20;12.70;1.00
17215;DHT22;8723;51.502;6.918;2023-04-06T11:01:48;12.80;1.00
17215;DHT22;8723;51.502;6.918;2023-04-06T11:04:16;12.80;1.00
17215;DHT22;8723;51.502;6.918;2023-04-06T11:06:46;12.70;1.00
17215;DHT22;8723;51.502;6.918;2023-04-06T11:09:23;12.90;1.00
17215;DHT22;8723;51.502;6.918;2023-04-06T11:11:51;13.00;1.00
17215;DHT22;8723;51.502;6.918;2023-04-06T11:14:19;13.00;1.00
17215;DHT22;8723;51.502;6.918;2023-04-06T11:16:48;13.00;1.00
17215;DHT22;8723;51.502;6.918;2023-04-06T11:19:15;13.10;1.00
17215;DHT22;8723;51.502;6.918;2023-04-06T11:21:43;13.10;1.00
17215;DHT22;8723;51.502;6.918;2023-04-06T11:24:14;12.90;1.00
17215;DHT22;8723;51.502;6.918;2023-04-06T11:26:43;12.90;1.00
17215;DHT22;8723;51.502;6.918;2023-04-06T11:29:12;12.90;1.00
17215;DHT22;8723;51.502;6.918;2023-04-06T11:31:41;12.90;1.00
17215;DHT22;8723;51.502;6.918;2023-04-06T11:34:15;12.90;1.00
17215;DHT22;8723;51.502;6.918;2023-04-06T11:36:43;12.70;1.00
17215;DHT22;8723;51.502;6.918;2023-04-06T11:39:11;12.80;1.00
17215;DHT22;8723;51.502;6.918;2023-04-06T11:41:38;12.70;1.00
17215;DHT22;8723;51.502;6.918;2023-04-06T11:44:06;12.90;1.00
17215;DHT22;8723;51.502;6.918;2023-04-06T11:46:33;13.00;1.00
17215;DHT22;8723;51.502;6.918;2023-04-06T11:49:02;13.00;1.00
17215;DHT22;8723;51.502;6.918;2023-04-06T11:51:35;13.00;1.00
17215;DHT22;8723;51.502;6.918;2023-04-06T11:54:03;12.90;1.00
17215;DHT22;8723;51.502;6.918;2023-04-06T11:56:30;12.90;1.00
17215;DHT22;8723;51.502;6.918;2023-04-06T11:58:58;12.90;1.00
17215;DHT22;8723;51.502;6.918;2023-04-06T12:01:26;12.80;1.00
17215;DHT22;8723;51.502;6.918;2023-04-06T12:03:53;12.90;1.00
17215;DHT22;8723;51.502;6.918;2023-04-06T12:06:20;12.90;1.00
17215;DHT22;8723;51.502;6.918;2023-04-06T12:08:49;12.90;1.00
17215;DHT22;8723;51.502;6.918;2023-04-06T12:11:16;12.90;1.00
17215;DHT22;8723;51.502;6.918;2023-04-06T12:13:44;13.00;1.00
17215;DHT22;8723;51.502;6.918;2023-04-06T12:16:11;13.00;1.00
17215;DHT22;8723;51.502;6.918;2023-04-06T12:18:38;13.00;1.00
17215;DHT22;8723;51.502;6.918;2023-04-06T12:21:05;13.10;1.00
17215;DHT22;8723;51.502;6.918;2023-04-06T12:23:32;13.00;1.00
17215;DHT22;8723;51.502;6.918;2023-04-06T12:26:00;12.90;1.00
17215;DHT22;8723;51.502;6.918;2023-04-06T12:28:27;12.90;1.00
17215;DHT22;8723;51.502;6.918;2023-04-06T12:30:55;12.90;1.00
17215;DHT22;8723;51.502;6.918;2023-04-06T12:33:22;12.90;1.00
17215;DHT22;8723;51.502;6.918;2023-04-06T12:35:48;12.80;1.00
17215;DHT22;8723;51.502;6.918;2023-04-06T12:38:15;12.70;1.00
17215;DHT22;8723;51.502;6.918;2023-04-06T12:40:42;12.70;1.00
17215;DHT22;8723;51.502;6.918;2023-04-06T12:43:11;12.70;1.00
17215;DHT22;8723;51.502;6.918;2023-04-06T12:45:39;12.60;1.00
17215;DHT22;8723;51.502;6.918;2023-04-06T12:48:07;12.70;1.00
17215;DHT22;8723;51.502;6.918;2023-04-06T12:50:33;12.60;1.00
17215;DHT22;8723;51.502;6.918;2023-04-06T12:53:01;12.50;1.00
17215;DHT22;8723;51.502;6.918;2023-04-06T12:55:30;12.50;1.00
17215;DHT22;8723;51.502;6.918;2023-04-06T12:57:59;12.50;1.00
17215;DHT22;8723;51.502;6.918;2023-04-06T13:00:28;12.50;1.00
17215;DHT22;8723;51.502;6.918;2023-04-06T13:02:56;12.50;1.00
17215;DHT22;8723;51.502;6.918;2023-04-06T13:05:23;12.60;1.00
17215;DHT22;8723;51.502;6.918;2023-04-06T13:07:50;12.50;1.00
17215;DHT22;8723;51.502;6.918;2023-04-06T13:10:17;12.50;1.00
17215;DHT22;8723;51.502;6.918;2023-04-06T13:12:44;12.40;1.00
17215;DHT22;8723;51.502;6.918;2023-04-06T13:15:11;12.40;1.00
17215;DHT22;8723;51.502;6.918;2023-04-06T13:17:39;12.40;1.00
17215;DHT22;8723;51.502;6.918;2023-04-06T13:20:07;12.50;1.00
17215;DHT22;8723;51.502;6.918;2023-04-06T13:22:34;12.60;1.00
17215;DHT22;8723;51.502;6.918;2023-04-06T13:25:02;12.60;1.00
17215;DHT22;8723;51.502;6.918;2023-04-06T13:27:29;12.50;1.00
17215;DHT22;8723;51.502;6.918;2023-04-06T13:29:59;12.60;1.00
17215;DHT22;8723;51.502;6.918;2023-04-06T13:32:26;12.50;1.00
17215;DHT22;8723;51.502;6.918;2023-04-06T13:34:56;12.50;1.00
17215;DHT22;8723;51.502;6.918;2023-04-06T13:37:23;12.40;1.00
17215;DHT22;8723;51.502;6.918;2023-04-06T13:39:50;12.40;1.00
17215;DHT22;8723;51.502;6.918;2023-04-06T13:42:17;12.40;1.00
17215;DHT22;8723;51.502;6.918;2023-04-06T13:44:44;12.30;1.00
17215;DHT22;8723;51.502;6.918;2023-04-06T13:47:13;12.20;1.00
17215;DHT22;8723;51.502;6.918;2023-04-06T13:49:41;12.20;1.00
17215;DHT22;8723;51.502;6.918;2023-04-06T13:52:09;12.10;1.00
17215;DHT22;8723;51.502;6.918;2023-04-06T13:54:37;12.10;1.00
17215;DHT22;8723;51.502;6.918;2023-04-06T13:57:04;12.10;1.00
17215;DHT22;8723;51.502;6.918;2023-04-06T13:59:33;12.10;1.00
17215;DHT22;8723;51.502;6.918;2023-04-06T14:02:00;12.10;1.00
17215;DHT22;8723;51.502;6.918;2023-04-06T14:04:27;12.10;1.00
17215;DHT22;8723;51.502;6.918;2023-04-06T14:06:53;12.00;1.00
17215;DHT22;8723;51.502;6.918;2023-04-06T14:09:22;12.10;1.00
17215;DHT22;8723;51.502;6.918;2023-04-06T14:11:49;12.10;1.00
17215;DHT22;8723;51.502;6.918;2023-04-06T14:14:16;12.00;1.00
17215;DHT22;8723;51.502;6.918;2023-04-06T14:16:43;12.00;1.00
17215;DHT22;8723;51.502;6.918;2023-04-06T14:19:10;12.00;1.00
17215;DHT22;8723;51.502;6.918;2023-04-06T14:21:38;12.00;1.00
17215;DHT22;8723;51.502;6.918;2023-04-06T14:24:06;11.90;1.00
17215;DHT22;8723;51.502;6.918;2023-04-06T14:26:35;11.90;1.00
17215;DHT22;8723;51.502;6.918;2023-04-06T14:29:02;11.80;1.00
17215;DHT22;8723;51.502;6.918;2023-04-06T14:34:37;11.70;1.00
17215;DHT22;8723;51.502;6.918;2023-04-06T14:37:04;11.60;1.00
17215;DHT22;8723;51.502;6.918;2023-04-06T14:39:31;11.60;1.00
17215;DHT22;8723;51.502;6.918;2023-04-06T14:42:00;11.50;1.00
17215;DHT22;8723;51.502;6.918;2023-04-06T14:44:26;11.60;1.00
17215;DHT22;8723;51.502;6.918;2023-04-06T14:46:53;11.70;1.00
17215;DHT22;8723;51.502;6.918;2023-04-06T14:49:20;11.60;1.00
17215;DHT22;8723;51.502;6.918;2023-04-06T14:51:47;11.60;1.00
17215;DHT22;8723;51.502;6.918;2023-04-06T14:54:16;11.50;1.00
17215;DHT22;8723;51.502;6.918;2023-04-06T14:56:43;11.50;1.00
17215;DHT22;8723;51.502;6.918;2023-04-06T14:59:12;11.60;1.00
17215;DHT22;8723;51.502;6.918;2023-04-06T15:01:39;11.60;1.00
17215;DHT22;8723;51.502;6.918;2023-04-06T15:04:06;11.60;1.00
17215;DHT22;8723;51.502;6.918;2023-04-06T15:06:33;11.60;1.00
17215;DHT22;8723;51.502;6.918;2023-04-06T15:09:00;11.70;1.00
17215;DHT22;8723;51.502;6.918;2023-04-06T15:11:28;11.70;1.00
17215;DHT22;8723;51.502;6.918;2023-04-06T15:13:55;11.60;1.00
17215;DHT22;8723;51.502;6.918;2023-04-06T15:16:23;11.70;1.00
17215;DHT22;8723;51.502;6.918;2023-04-06T15:18:50;11.70;1.00
17215;DHT22;8723;51.502;6.918;2023-04-06T15:21:17;11.70;1.00
17215;DHT22;8723;51.502;6.918;2023-04-06T15:23:45;11.60;1.00
17215;DHT22;8723;51.502;6.918;2023-04-06T15:26:12;11.50;1.00
17215;DHT22;8723;51.502;6.918;2023-04-06T15:28:39;11.50;1.00
17215;DHT22;8723;51.502;6.918;2023-04-06T15:31:13;11.40;1.00
17215;DHT22;8723;51.502;6.918;2023-04-06T15:33:41;11.30;1.00
17215;DHT22;8723;51.502;6.918;2023-04-06T15:36:21;11.20;1.00
17215;DHT22;8723;51.502;6.918;2023-04-06T15:38:48;11.10;1.00
17215;DHT22;8723;51.502;6.918;2023-04-06T15:41:16;10.90;1.00
17215;DHT22;8723;51.502;6.918;2023-04-06T15:43:43;10.80;1.90
17215;DHT22;8723;51.502;6.918;2023-04-06T15:46:10;10.60;24.70
17215;DHT22;8723;51.502;6.918;2023-04-06T15:48:37;10.50;99.90
17215;DHT22;8723;51.502;6.918;2023-04-06T15:51:05;10.40;99.90
17215;DHT22;8723;51.502;6.918;2023-04-06T15:53:32;10.30;99.90
17215;DHT22;8723;51.502;6.918;2023-04-06T15:55:59;10.20;99.90
17215;DHT22;8723;51.502;6.918;2023-04-06T15:58:27;10.10;99.90
17215;DHT22;8723;51.502;6.918;2023-04-06T16:00:55;10.00;99.90
17215;DHT22;8723;51.502;6.918;2023-04-06T16:03:22;10.00;1.00
17215;DHT22;8723;51.502;6.918;2023-04-06T16:05:49;9.80;99.90
17215;DHT22;8723;51.502;6.918;2023-04-06T16:08:17;9.80;99.90
17215;DHT22;8723;51.502;6.918;2023-04-06T16:10:45;9.70;1.00
17215;DHT22;8723;51.502;6.918;2023-04-06T16:13:12;9.60;99.90
17215;DHT22;8723;51.502;6.918;2023-04-06T16:15:39;9.50;1.00